createdAt,value
2022-08-08T00:01:52.626Z,18.85
2022-08-08T00:04:36.333Z,18.81
2022-08-08T00:07:30.797Z,18.76
2022-08-08T00:10:28.245Z,18.70
2022-08-08T00:13:10.612Z,18.63
2022-08-08T00:15:57.539Z,18.61
2022-08-08T00:18:54.354Z,18.55
2022-08-08T00:21:39.618Z,18.53
2022-08-08T00:24:31.668Z,18.48
2022-08-08T00:27:03.382Z,18.46
2022-08-08T00:29:45.672Z,18.43
2022-08-08T00:32:34.922Z,18.40
2022-08-08T00:35:18.724Z,18.37
2022-08-08T00:38:01.380Z,18.35
2022-08-08T00:41:06.731Z,18.31
2022-08-08T00:43:55.916Z,18.25
2022-08-08T00:46:59.214Z,18.21
2022-08-08T00:49:35.626Z,18.19
2022-08-08T00:52:40.144Z,18.12
2022-08-08T00:55:53.866Z,18.08
2022-08-08T00:58:54.336Z,18.05
2022-08-08T01:02:01.809Z,18.01
2022-08-08T01:04:58.967Z,18.00
2022-08-08T01:07:55.507Z,17.97
2022-08-08T01:10:57.485Z,17.94
2022-08-08T01:14:01.847Z,17.92
2022-08-08T01:17:11.930Z,17.89
2022-08-08T01:20:07.927Z,17.85
2022-08-08T01:23:01.593Z,17.84
2022-08-08T01:26:05.851Z,17.83
2022-08-08T01:29:05.755Z,17.80
2022-08-08T01:32:05.774Z,17.80
2022-08-08T01:35:11.250Z,17.76
2022-08-08T01:37:58.381Z,17.74
2022-08-08T01:41:20.443Z,17.73
2022-08-08T01:43:56.575Z,17.74
2022-08-08T01:47:00.933Z,17.72
2022-08-08T01:50:12.242Z,17.70
2022-08-08T01:54:20.290Z,17.68
2022-08-08T01:56:30.852Z,17.66
2022-08-08T01:59:37.979Z,17.65
2022-08-08T02:02:33.994Z,17.62
2022-08-08T02:05:07.943Z,17.58
2022-08-08T02:07:53.334Z,17.56
2022-08-08T02:10:51.155Z,17.53
2022-08-08T02:13:53.969Z,17.50
2022-08-08T02:16:34.422Z,17.49
2022-08-08T02:19:41.885Z,17.46
2022-08-08T02:22:10.020Z,17.45
2022-08-08T02:24:49.775Z,17.45
2022-08-08T02:27:24.557Z,17.42
2022-08-08T02:30:21.269Z,17.41
2022-08-08T02:33:09.877Z,17.41
2022-08-08T02:36:05.022Z,17.44
2022-08-08T02:38:33.863Z,17.46
2022-08-08T02:41:58.044Z,17.48
2022-08-08T02:44:36.997Z,17.49
2022-08-08T02:47:13.113Z,17.49
2022-08-08T02:49:51.056Z,17.49
2022-08-08T02:52:50.939Z,17.45
2022-08-08T02:55:47.819Z,17.45
2022-08-08T02:58:49.839Z,17.44
2022-08-08T03:01:47.505Z,17.40
2022-08-08T03:05:04.548Z,17.36
2022-08-08T03:07:58.008Z,17.32
2022-08-08T03:11:06.124Z,17.31
2022-08-08T03:15:56.774Z,17.28
2022-08-08T03:16:48.338Z,17.28
2022-08-08T03:19:51.086Z,17.24
2022-08-08T03:22:38.286Z,17.24
2022-08-08T03:25:14.523Z,17.21
2022-08-08T03:27:56.495Z,17.18
2022-08-08T03:30:25.369Z,17.17
2022-08-08T03:32:57.671Z,17.12
2022-08-08T03:35:30.244Z,17.12
2022-08-08T03:38:57.069Z,17.08
2022-08-08T03:40:52.001Z,17.04
2022-08-08T03:43:20.327Z,17.02
2022-08-08T03:46:07.358Z,16.99
2022-08-08T03:49:09.940Z,16.94
2022-08-08T03:51:50.791Z,16.92
2022-08-08T03:54:41.138Z,16.89
2022-08-08T03:58:30.484Z,16.88
2022-08-08T03:59:59.596Z,16.86
2022-08-08T04:02:47.564Z,16.85
2022-08-08T04:05:28.264Z,16.86
2022-08-08T04:08:01.576Z,16.85
2022-08-08T04:10:32.783Z,16.84
2022-08-08T04:13:08.289Z,16.83
2022-08-08T04:15:55.032Z,16.83
2022-08-08T04:18:42.021Z,16.83
2022-08-08T04:21:22.900Z,16.84
2022-08-08T04:24:12.013Z,16.85
2022-08-08T04:26:56.870Z,16.84
2022-08-08T04:29:24.669Z,16.83
2022-08-08T04:31:59.715Z,16.83
2022-08-08T04:34:32.300Z,16.84
2022-08-08T04:37:11.565Z,16.85
2022-08-08T04:40:04.349Z,16.86
2022-08-08T04:42:27.725Z,16.88
2022-08-08T04:44:54.641Z,16.91
2022-08-08T04:47:21.982Z,16.92
2022-08-08T04:50:00.449Z,16.94
2022-08-08T04:52:33.950Z,16.97
2022-08-08T04:55:06.461Z,17.00
2022-08-08T04:57:34.653Z,17.02
2022-08-08T05:00:03.530Z,16.96
2022-08-08T05:02:31.143Z,16.97
2022-08-08T05:04:59.921Z,17.12
2022-08-08T05:07:38.158Z,17.19
2022-08-08T05:10:12.671Z,17.27
2022-08-08T05:12:53.368Z,17.33
2022-08-08T05:15:31.633Z,17.40
2022-08-08T05:18:16.467Z,17.48
2022-08-08T05:20:50.111Z,17.56
2022-08-08T05:23:18.321Z,17.63
2022-08-08T05:25:46.812Z,17.73
2022-08-08T05:28:14.783Z,17.79
2022-08-08T05:30:47.137Z,17.86
2022-08-08T05:33:16.935Z,17.94
2022-08-08T05:35:46.383Z,18.02
2022-08-08T05:38:31.321Z,18.10
2022-08-08T05:41:05.387Z,18.20
2022-08-08T05:43:39.181Z,18.30
2022-08-08T05:46:10.453Z,18.39
2022-08-08T05:48:41.978Z,18.47
2022-08-08T05:51:13.292Z,18.54
2022-08-08T05:54:25.749Z,18.62
2022-08-08T05:56:38.700Z,18.67
2022-08-08T05:59:59.626Z,18.75
2022-08-08T06:02:19.953Z,18.81
2022-08-08T06:04:55.102Z,18.90
2022-08-08T06:07:24.500Z,18.95
2022-08-08T06:09:59.422Z,18.98
2022-08-08T06:12:31.953Z,18.98
2022-08-08T06:15:03.833Z,19.01
2022-08-08T06:17:50.824Z,19.04
2022-08-08T06:20:25.945Z,19.08
2022-08-08T06:22:56.443Z,19.13
2022-08-08T06:26:34.854Z,19.20
2022-08-08T06:28:29.728Z,19.27
2022-08-08T06:31:02.676Z,19.35
2022-08-08T06:34:26.945Z,19.43
2022-08-08T06:36:55.226Z,19.54
2022-08-08T06:39:27.657Z,19.65
2022-08-08T06:42:02.799Z,19.73
2022-08-08T06:44:42.582Z,19.85
2022-08-08T06:47:10.673Z,19.94
2022-08-08T06:49:55.215Z,20.06
2022-08-08T06:52:27.589Z,20.16
2022-08-08T06:54:55.494Z,20.28
2022-08-08T06:57:22.205Z,20.39
2022-08-08T07:00:10.538Z,20.48
2022-08-08T07:02:39.198Z,20.57
2022-08-08T07:05:20.392Z,20.69
2022-08-08T07:07:56.572Z,20.79
2022-08-08T07:10:33.979Z,20.93
2022-08-08T07:13:09.400Z,20.94
2022-08-08T07:16:15.329Z,21.12
2022-08-08T07:19:00.321Z,21.22
2022-08-08T07:21:37.404Z,21.26
2022-08-08T07:24:19.389Z,21.32
2022-08-08T07:26:59.081Z,21.43
2022-08-08T07:30:00.955Z,21.43
2022-08-08T07:32:24.398Z,21.45
2022-08-08T07:35:00.844Z,21.51
2022-08-08T07:37:56.571Z,21.52
2022-08-08T07:40:32.426Z,21.54
2022-08-08T07:43:09.126Z,21.55
2022-08-08T07:46:05.239Z,21.62
2022-08-08T07:48:24.371Z,21.67
2022-08-08T07:50:52.598Z,21.77
2022-08-08T07:54:01.228Z,21.84
2022-08-08T07:56:15.721Z,21.95
2022-08-08T07:58:44.529Z,22.05
2022-08-08T08:01:27.042Z,22.10
2022-08-08T08:04:03.842Z,22.18
2022-08-08T08:06:33.326Z,22.25
2022-08-08T08:09:18.220Z,22.32
2022-08-08T08:11:51.588Z,22.47
2022-08-08T08:15:11.928Z,22.61
2022-08-08T08:17:48.578Z,22.66
2022-08-08T08:20:19.565Z,22.73
2022-08-08T08:22:48.058Z,22.81
2022-08-08T08:25:17.002Z,22.85
2022-08-08T08:28:00.336Z,22.94
2022-08-08T08:30:30.193Z,23.00
2022-08-08T08:32:59.147Z,23.05
2022-08-08T08:35:29.921Z,23.09
2022-08-08T08:38:17.347Z,23.14
2022-08-08T08:40:51.622Z,23.18
2022-08-08T08:43:20.019Z,23.26
2022-08-08T08:45:57.383Z,23.31
2022-08-08T08:48:25.608Z,23.30
2022-08-08T08:50:55.659Z,23.36
2022-08-08T08:53:27.977Z,23.43
2022-08-08T08:56:18.173Z,23.48
2022-08-08T08:58:52.884Z,23.57
2022-08-08T09:01:27.977Z,23.64
2022-08-08T09:04:01.310Z,23.64
2022-08-08T09:06:37.491Z,23.57
2022-08-08T09:09:26.358Z,23.69
2022-08-08T09:12:11.098Z,23.82
2022-08-08T09:14:45.056Z,23.88
2022-08-08T09:17:19.084Z,23.95
2022-08-08T09:21:57.487Z,23.99
2022-08-08T09:22:35.736Z,24.02
2022-08-08T09:25:04.532Z,24.00
2022-08-08T09:27:57.099Z,24.18
2022-08-08T09:30:20.160Z,24.26
2022-08-08T09:33:55.476Z,24.37
2022-08-08T09:35:49.328Z,24.52
2022-08-08T09:38:29.593Z,24.67
2022-08-08T09:41:03.539Z,24.83
2022-08-08T09:44:04.514Z,24.98
2022-08-08T09:46:25.556Z,25.08
2022-08-08T09:48:58.538Z,25.25
2022-08-08T09:52:06.411Z,25.34
2022-08-08T09:54:41.501Z,25.50
2022-08-08T09:57:16.122Z,25.62
2022-08-08T10:00:02.080Z,25.70
2022-08-08T10:02:47.041Z,25.77
2022-08-08T10:05:22.767Z,25.82
2022-08-08T10:07:51.960Z,25.84
2022-08-08T10:10:33.577Z,25.88
2022-08-08T10:13:32.122Z,25.84
2022-08-08T10:16:05.192Z,25.84
2022-08-08T10:18:35.126Z,25.80
2022-08-08T10:21:25.247Z,25.78
2022-08-08T10:23:58.081Z,25.81
2022-08-08T10:26:57.611Z,25.79
2022-08-08T10:29:24.849Z,25.86
2022-08-08T10:31:57.439Z,25.84
2022-08-08T10:34:27.250Z,25.88
2022-08-08T10:36:59.811Z,26.00
2022-08-08T10:39:43.652Z,26.08
2022-08-08T10:42:19.053Z,26.13
2022-08-08T10:44:49.361Z,26.20
2022-08-08T10:47:20.961Z,26.26
2022-08-08T10:50:00.432Z,26.25
2022-08-08T10:52:34.282Z,26.35
2022-08-08T10:55:06.656Z,26.39
2022-08-08T10:57:49.530Z,26.47
2022-08-08T11:00:26.066Z,26.60
2022-08-08T11:02:57.504Z,26.67
2022-08-08T11:05:24.614Z,26.74
2022-08-08T11:08:37.345Z,26.81
2022-08-08T11:10:41.861Z,26.89
2022-08-08T11:16:00.745Z,26.95
2022-08-08T11:18:29.898Z,27.03
2022-08-08T11:21:00.864Z,27.02
2022-08-08T11:23:39.680Z,27.01
2022-08-08T11:26:06.779Z,27.06
2022-08-08T11:28:38.456Z,27.16
2022-08-08T11:31:09.528Z,27.28
2022-08-08T11:33:59.368Z,27.36
2022-08-08T11:36:29.051Z,27.45
2022-08-08T11:38:57.122Z,27.47
2022-08-08T11:41:28.194Z,27.50
2022-08-08T11:44:00.740Z,27.59
2022-08-08T11:46:31.670Z,27.68
2022-08-08T11:49:00.183Z,27.77
2022-08-08T11:51:30.719Z,27.84
2022-08-08T11:54:27.248Z,27.91
2022-08-08T11:56:55.933Z,27.96
2022-08-08T12:00:02.124Z,28.05
2022-08-08T12:02:32.371Z,28.16
2022-08-08T12:05:07.056Z,28.27
2022-08-08T12:07:53.513Z,28.32
2022-08-08T12:10:28.119Z,28.38
2022-08-08T12:13:06.893Z,28.40
2022-08-08T12:15:42.681Z,28.37
2022-08-08T12:18:24.437Z,28.29
2022-08-08T12:20:56.595Z,28.31
2022-08-08T12:23:43.173Z,28.27
2022-08-08T12:26:28.181Z,28.21
2022-08-08T12:29:19.206Z,28.14
2022-08-08T12:31:53.878Z,28.10
2022-08-08T12:34:36.806Z,28.12
2022-08-08T12:37:05.199Z,28.25
2022-08-08T12:40:01.851Z,28.33
2022-08-08T12:42:22.067Z,28.39
2022-08-08T12:45:20.090Z,28.43
2022-08-08T12:48:10.290Z,28.60
2022-08-08T12:50:54.580Z,28.53
2022-08-08T12:53:30.282Z,28.45
2022-08-08T12:56:17.605Z,28.33
2022-08-08T12:58:55.491Z,28.15
2022-08-08T13:01:35.179Z,28.09
2022-08-08T13:04:24.490Z,28.01
2022-08-08T13:07:06.435Z,28.08
2022-08-08T13:09:57.383Z,28.18
2022-08-08T13:12:30.391Z,28.27
2022-08-08T13:15:03.107Z,28.40
2022-08-08T13:17:54.322Z,28.58
2022-08-08T13:20:19.726Z,28.80
2022-08-08T13:22:46.777Z,28.86
2022-08-08T13:25:14.078Z,29.00
2022-08-08T13:27:41.847Z,28.94
2022-08-08T13:30:10.474Z,28.86
2022-08-08T13:32:39.681Z,28.80
2022-08-08T13:35:24.260Z,28.72
2022-08-08T13:38:05.176Z,28.72
2022-08-08T13:40:34.116Z,28.76
2022-08-08T13:43:00.875Z,28.82
2022-08-08T13:45:31.016Z,28.91
2022-08-08T13:48:02.043Z,28.87
2022-08-08T13:50:43.109Z,28.90
2022-08-08T13:53:27.031Z,28.79
2022-08-08T13:56:02.056Z,28.93
2022-08-08T13:58:31.149Z,29.00
2022-08-08T14:01:11.132Z,29.09
2022-08-08T14:03:53.343Z,29.22
2022-08-08T14:06:32.897Z,29.30
2022-08-08T14:09:24.443Z,29.33
2022-08-08T14:11:48.796Z,29.33
2022-08-08T14:14:20.607Z,29.30
2022-08-08T14:16:52.089Z,29.27
2022-08-08T14:19:28.018Z,29.27
2022-08-08T14:22:20.274Z,29.34
2022-08-08T14:24:52.646Z,29.47
2022-08-08T14:27:27.165Z,29.52
2022-08-08T14:30:02.897Z,29.60
2022-08-08T14:32:31.360Z,29.76
2022-08-08T14:35:08.104Z,29.95
2022-08-08T14:37:59.646Z,30.18
2022-08-08T14:40:29.863Z,30.52
2022-08-08T14:43:01.383Z,30.83
2022-08-08T14:46:01.546Z,31.23
2022-08-08T14:48:27.393Z,31.59
2022-08-08T14:51:06.631Z,31.84
2022-08-08T14:53:56.083Z,31.76
2022-08-08T14:56:25.781Z,31.59
2022-08-08T14:58:54.416Z,31.43
2022-08-08T15:01:41.384Z,31.26
2022-08-08T15:04:09.374Z,31.10
2022-08-08T15:06:37.275Z,31.02
2022-08-08T15:09:04.509Z,31.09
2022-08-08T15:11:43.043Z,31.37
2022-08-08T15:14:14.365Z,31.73
2022-08-08T15:16:42.618Z,31.75
2022-08-08T15:19:11.429Z,31.95
2022-08-08T15:21:42.864Z,31.90
2022-08-08T15:24:14.066Z,31.74
2022-08-08T15:26:41.803Z,31.58
2022-08-08T15:29:08.421Z,31.61
2022-08-08T15:32:03.835Z,31.74
2022-08-08T15:34:29.301Z,31.93
2022-08-08T15:37:02.108Z,32.16
2022-08-08T15:39:29.746Z,32.49
2022-08-08T15:41:58.180Z,32.67
2022-08-08T15:44:27.275Z,32.85
2022-08-08T15:46:54.790Z,32.72
2022-08-08T15:49:24.447Z,32.50
2022-08-08T15:51:56.430Z,32.28
2022-08-08T15:54:38.663Z,32.23
2022-08-08T15:57:09.306Z,32.26
2022-08-08T16:00:10.971Z,32.31
2022-08-08T16:02:30.575Z,32.39
2022-08-08T16:04:58.838Z,32.51
2022-08-08T16:07:25.695Z,32.72
2022-08-08T16:13:11.263Z,33.01
2022-08-08T16:13:15.666Z,32.88
2022-08-08T16:15:59.708Z,33.06
2022-08-08T16:18:33.211Z,33.19
2022-08-08T16:21:00.889Z,33.23
2022-08-08T16:23:32.190Z,33.44
2022-08-08T16:26:04.825Z,33.41
2022-08-08T16:28:41.446Z,33.25
2022-08-08T16:31:09.205Z,33.16
2022-08-08T16:33:39.451Z,33.22
2022-08-08T16:36:08.971Z,33.29
2022-08-08T16:38:44.874Z,33.25
2022-08-08T16:41:22.758Z,33.34
2022-08-08T16:43:51.530Z,33.37
2022-08-08T16:46:37.474Z,33.22
2022-08-08T16:49:09.200Z,33.13
2022-08-08T16:55:00.968Z,33.09
2022-08-08T16:55:05.352Z,33.22
2022-08-08T16:57:23.663Z,33.31
2022-08-08T16:59:58.016Z,33.48
2022-08-08T17:02:38.246Z,33.52
2022-08-08T17:05:06.607Z,33.59
2022-08-08T17:07:33.180Z,33.66
2022-08-08T17:10:05.059Z,33.67
2022-08-08T17:12:34.769Z,33.57
2022-08-08T17:15:17.702Z,33.46
2022-08-08T17:18:03.561Z,33.43
2022-08-08T17:20:39.622Z,33.36
2022-08-08T17:23:25.774Z,33.32
2022-08-08T17:25:54.147Z,33.10
2022-08-08T17:28:34.618Z,33.16
2022-08-08T17:31:39.539Z,33.09
2022-08-08T17:34:37.384Z,32.99
2022-08-08T17:36:55.172Z,32.84
2022-08-08T17:40:03.534Z,32.73
2022-08-08T17:42:14.674Z,32.64
2022-08-08T17:44:44.181Z,32.56
2022-08-08T17:47:11.229Z,32.46
2022-08-08T17:49:50.410Z,32.29
2022-08-08T17:52:18.552Z,32.14
2022-08-08T17:54:46.322Z,31.99
2022-08-08T17:57:14.260Z,31.89
2022-08-08T17:59:45.635Z,31.81
2022-08-08T18:02:18.699Z,31.72
2022-08-08T18:04:50.951Z,31.51
2022-08-08T18:08:04.064Z,31.25
2022-08-08T18:10:05.165Z,30.87
2022-08-08T18:12:31.719Z,30.53
2022-08-08T18:14:58.675Z,30.19
2022-08-08T18:17:28.563Z,29.83
2022-08-08T18:20:37.091Z,29.44
2022-08-08T18:22:58.973Z,29.08
2022-08-08T18:25:25.736Z,28.78
2022-08-08T18:27:55.110Z,28.49
2022-08-08T18:30:21.712Z,28.22
2022-08-08T18:32:48.645Z,27.95
2022-08-08T18:35:16.820Z,27.71
2022-08-08T18:37:48.458Z,27.48
2022-08-08T18:40:15.640Z,27.24
2022-08-08T18:42:45.798Z,27.02
2022-08-08T18:45:45.092Z,26.81
2022-08-08T18:48:07.759Z,26.58
2022-08-08T18:50:39.440Z,26.38
2022-08-08T18:53:06.739Z,26.20
2022-08-08T18:55:33.998Z,26.00
2022-08-08T18:58:00.561Z,25.85
2022-08-08T19:00:27.381Z,25.68
2022-08-08T19:02:55.213Z,25.53
2022-08-08T19:05:31.834Z,25.35
2022-08-08T19:08:07.953Z,25.22
2022-08-08T19:10:35.206Z,25.09
2022-08-08T19:13:01.800Z,24.95
2022-08-08T19:15:34.171Z,24.84
2022-08-08T19:18:30.961Z,24.72
2022-08-08T19:20:48.687Z,24.59
2022-08-08T19:23:16.728Z,24.48
2022-08-08T19:26:20.163Z,24.38
2022-08-08T19:28:30.056Z,24.24
2022-08-08T19:31:03.831Z,24.13
2022-08-08T19:33:51.578Z,24.01
2022-08-08T19:36:27.548Z,23.92
2022-08-08T19:38:56.282Z,23.85
2022-08-08T19:41:28.029Z,23.73
2022-08-08T19:44:02.761Z,23.66
2022-08-08T19:46:33.207Z,23.58
2022-08-08T19:49:01.024Z,23.49
2022-08-08T19:51:34.296Z,23.43
2022-08-08T19:54:06.140Z,23.34
2022-08-08T19:56:40.374Z,23.27
2022-08-08T19:59:09.246Z,23.21
2022-08-08T20:02:01.719Z,23.14
2022-08-08T20:04:23.774Z,23.05
2022-08-08T20:06:51.010Z,23.00
2022-08-08T20:09:22.418Z,22.95
2022-08-08T20:11:50.164Z,22.90
2022-08-08T20:14:33.932Z,22.83
2022-08-08T20:17:02.166Z,22.76
2022-08-08T20:19:33.433Z,22.70
2022-08-08T20:22:03.143Z,22.64
2022-08-08T20:24:31.885Z,22.58
2022-08-08T20:26:58.531Z,22.53
2022-08-08T20:29:25.793Z,22.45
2022-08-08T20:32:14.074Z,22.39
2022-08-08T20:34:47.953Z,22.32
2022-08-08T20:37:20.797Z,22.27
2022-08-08T20:39:51.628Z,22.21
2022-08-08T20:42:20.431Z,22.16
2022-08-08T20:44:55.134Z,22.09
2022-08-08T20:47:23.346Z,22.04
2022-08-08T20:50:03.956Z,21.99
2022-08-08T20:52:32.136Z,21.93
2022-08-08T20:54:58.881Z,21.89
2022-08-08T21:00:08.675Z,21.75
2022-08-08T21:02:37.412Z,21.70
2022-08-08T21:05:04.522Z,21.64
2022-08-08T21:08:07.688Z,21.56
2022-08-08T21:10:20.765Z,21.50
2022-08-08T21:12:54.251Z,21.44
2022-08-08T21:16:04.946Z,21.37
2022-08-08T21:18:08.179Z,21.29
2022-08-08T21:20:35.190Z,21.26
2022-08-08T21:23:04.361Z,21.19
2022-08-08T21:25:36.488Z,21.14
2022-08-08T21:28:14.443Z,21.08
2022-08-08T21:30:42.905Z,21.02
2022-08-08T21:33:16.221Z,20.99
2022-08-08T21:36:14.908Z,20.95
2022-08-08T21:38:29.909Z,20.90
2022-08-08T21:40:58.013Z,20.88
2022-08-08T21:43:31.134Z,20.84
2022-08-08T21:48:06.009Z,20.80
2022-08-08T21:48:51.441Z,20.76
2022-08-08T21:51:45.856Z,20.74
2022-08-08T21:54:23.209Z,20.70
2022-08-08T21:56:54.911Z,20.65
2022-08-08T21:59:22.925Z,20.63
2022-08-08T22:01:52.525Z,20.49
2022-08-08T22:04:24.638Z,20.53
2022-08-08T22:06:52.490Z,20.51
2022-08-08T22:09:19.311Z,20.47
2022-08-08T22:12:03.086Z,20.44
2022-08-08T22:14:32.735Z,20.38
2022-08-08T22:17:01.268Z,20.35
2022-08-08T22:19:29.049Z,20.30
2022-08-08T22:21:56.691Z,20.27
2022-08-08T22:24:23.800Z,20.24
2022-08-08T22:27:01.232Z,20.19
2022-08-08T22:30:01.648Z,20.16
2022-08-08T22:32:18.925Z,20.10
2022-08-08T22:34:50.606Z,19.97
2022-08-08T22:37:49.474Z,20.01
2022-08-08T22:40:11.748Z,19.96
2022-08-08T22:42:42.930Z,19.92
2022-08-08T22:45:13.745Z,19.91
2022-08-08T22:47:48.684Z,19.88
2022-08-08T22:50:26.096Z,19.85
2022-08-08T22:54:30.993Z,19.82
2022-08-08T22:55:59.521Z,19.79
2022-08-08T22:58:28.671Z,19.66
2022-08-08T23:00:56.144Z,19.73
2022-08-08T23:03:24.208Z,19.72
2022-08-08T23:06:01.614Z,19.68
2022-08-08T23:08:28.469Z,19.64
2022-08-08T23:11:06.400Z,19.62
2022-08-08T23:13:42.098Z,19.58
2022-08-08T23:16:37.871Z,19.55
2022-08-08T23:19:04.734Z,19.53
2022-08-08T23:21:35.599Z,19.50
2022-08-08T23:24:05.887Z,19.48
2022-08-08T23:26:33.084Z,19.44
2022-08-08T23:29:00.803Z,19.41
2022-08-08T23:31:27.435Z,19.40
2022-08-08T23:34:17.001Z,19.37
2022-08-08T23:36:40.869Z,19.36
2022-08-08T23:39:07.812Z,19.34
2022-08-08T23:41:41.577Z,19.32
2022-08-08T23:44:13.226Z,19.29
2022-08-08T23:49:05.467Z,19.28
2022-08-08T23:49:26.699Z,19.25
2022-08-08T23:52:05.860Z,19.21
2022-08-08T23:54:42.478Z,19.17
2022-08-08T23:57:26.658Z,19.15
